createdAt,value
2022-09-24T00:00:38.645Z,5.68
2022-09-24T00:03:45.557Z,5.30
2022-09-24T00:06:48.958Z,5.55
2022-09-24T00:09:52.048Z,5.55
2022-09-24T00:12:55.199Z,5.93
2022-09-24T00:16:03.974Z,5.57
2022-09-24T00:19:07.336Z,5.80
2022-09-24T00:22:10.457Z,5.75
2022-09-24T00:25:32.140Z,5.53
2022-09-24T00:28:35.484Z,5.32
2022-09-24T00:31:38.756Z,5.50
2022-09-24T00:34:41.941Z,5.90
2022-09-24T00:37:45.003Z,5.38
2022-09-24T00:40:48.414Z,5.72
2022-09-24T00:43:51.889Z,5.95
2022-09-24T00:46:55.249Z,5.60
2022-09-24T00:50:33.403Z,5.80
2022-09-24T00:53:37.136Z,5.60
2022-09-24T00:56:43.206Z,6.20
2022-09-24T00:59:46.544Z,5.97
2022-09-24T01:02:55.559Z,6.13
2022-09-24T01:05:58.960Z,6.20
2022-09-24T01:09:02.253Z,6.60
2022-09-24T01:12:20.171Z,6.40
2022-09-24T01:15:32.916Z,6.30
2022-09-24T01:18:51.123Z,6.40
2022-09-24T01:22:03.997Z,6.40
2022-09-24T01:25:38.112Z,6.18
2022-09-24T01:28:56.632Z,6.50
2022-09-24T01:32:14.625Z,5.75
2022-09-24T01:35:22.059Z,6.22
2022-09-24T01:38:40.120Z,6.57
2022-09-24T01:41:44.709Z,6.20
2022-09-24T01:44:50.267Z,6.00
2022-09-24T01:47:53.482Z,6.45
2022-09-24T01:51:04.717Z,6.65
2022-09-24T01:54:32.964Z,6.10
2022-09-24T01:58:04.892Z,6.63
2022-09-24T02:01:23.427Z,6.18
2022-09-24T02:04:28.378Z,6.90
2022-09-24T02:07:54.331Z,6.53
2022-09-24T02:11:31.348Z,6.70
2022-09-24T02:14:40.059Z,6.93
2022-09-24T02:17:47.709Z,7.15
2022-09-24T02:20:53.296Z,6.75
2022-09-24T02:24:05.747Z,6.88
2022-09-24T02:27:09.505Z,6.90
2022-09-24T02:30:12.905Z,6.90
2022-09-24T02:33:35.403Z,6.53
2022-09-24T02:36:40.904Z,6.55
2022-09-24T02:39:44.130Z,6.60
2022-09-24T02:42:47.624Z,6.77
2022-09-24T02:45:50.956Z,6.53
2022-09-24T02:48:54.424Z,6.93
2022-09-24T02:51:57.607Z,7.10
2022-09-24T02:55:00.821Z,6.97
2022-09-24T02:58:03.975Z,6.50
2022-09-24T03:01:07.166Z,7.13
2022-09-24T03:04:10.491Z,7.40
2022-09-24T03:07:14.589Z,7.07
2022-09-24T03:10:17.725Z,7.53
2022-09-24T03:13:20.888Z,7.20
2022-09-24T03:16:24.484Z,6.70
2022-09-24T03:19:27.673Z,7.47
2022-09-24T03:22:30.716Z,7.38
2022-09-24T03:25:33.855Z,7.53
2022-09-24T03:28:37.069Z,7.45
2022-09-24T03:31:40.603Z,7.25
2022-09-24T03:34:43.709Z,7.90
2022-09-24T03:37:49.296Z,6.75
2022-09-24T03:40:52.741Z,6.80
2022-09-24T03:43:56.286Z,6.13
2022-09-24T03:46:59.315Z,6.55
2022-09-24T03:50:02.621Z,6.38
2022-09-24T03:53:05.874Z,6.80
2022-09-24T03:56:09.531Z,6.63
2022-09-24T03:59:12.757Z,6.38
2022-09-24T04:02:15.857Z,6.53
2022-09-24T04:05:19.073Z,6.53
2022-09-24T04:08:23.639Z,6.43
2022-09-24T04:11:26.789Z,6.40
2022-09-24T04:14:29.914Z,7.32
2022-09-24T04:17:32.967Z,7.00
2022-09-24T04:20:41.957Z,6.22
2022-09-24T04:23:45.079Z,6.68
2022-09-24T04:26:48.342Z,7.00
2022-09-24T04:29:51.407Z,7.38
2022-09-24T04:32:54.744Z,7.70
2022-09-24T04:35:57.924Z,7.22
2022-09-24T04:39:01.293Z,7.20
2022-09-24T04:42:04.431Z,7.55
2022-09-24T04:45:09.816Z,7.28
2022-09-24T04:48:13.634Z,7.20
2022-09-24T04:51:19.386Z,7.93
2022-09-24T04:54:22.431Z,7.77
2022-09-24T04:57:26.373Z,7.53
2022-09-24T05:00:31.618Z,8.60
2022-09-24T05:03:35.278Z,7.88
2022-09-24T05:06:38.565Z,8.05
2022-09-24T05:09:41.703Z,8.13
2022-09-24T05:12:44.761Z,8.48
2022-09-24T05:15:47.907Z,9.52
2022-09-24T05:18:51.047Z,8.33
2022-09-24T05:21:54.209Z,7.95
2022-09-24T05:24:57.317Z,7.80
2022-09-24T05:28:00.635Z,8.30
2022-09-24T05:31:03.862Z,8.73
2022-09-24T05:34:07.038Z,9.30
2022-09-24T05:37:10.756Z,8.25
2022-09-24T05:40:32.589Z,7.78
2022-09-24T05:43:35.781Z,7.63
2022-09-24T05:46:38.957Z,8.00
2022-09-24T05:49:42.935Z,7.57
2022-09-24T05:52:46.023Z,7.95
2022-09-24T05:55:49.241Z,7.72
2022-09-24T05:58:52.342Z,7.30
2022-09-24T06:01:55.490Z,7.70
2022-09-24T06:04:58.674Z,8.15
2022-09-24T06:08:03.705Z,9.80
2022-09-24T06:11:08.552Z,10.23
2022-09-24T06:14:12.187Z,11.07
2022-09-24T06:17:15.321Z,11.07
2022-09-24T06:20:18.368Z,11.35
2022-09-24T06:23:21.455Z,12.00
2022-09-24T06:26:26.221Z,10.90
2022-09-24T06:29:29.349Z,10.48
2022-09-24T06:32:32.517Z,10.43
2022-09-24T06:35:36.623Z,10.40
2022-09-24T06:38:40.627Z,10.02
2022-09-24T06:41:43.825Z,10.30
2022-09-24T06:44:49.207Z,9.25
2022-09-24T06:47:57.062Z,9.53
2022-09-24T06:51:00.167Z,8.68
2022-09-24T06:54:03.346Z,9.20
2022-09-24T06:57:07.585Z,8.88
2022-09-24T07:00:12.420Z,9.00
2022-09-24T07:03:16.879Z,9.23
2022-09-24T07:06:20.034Z,8.70
2022-09-24T07:09:23.119Z,8.50
2022-09-24T07:12:26.461Z,8.82
2022-09-24T07:15:29.653Z,8.38
2022-09-24T07:18:32.799Z,7.13
2022-09-24T07:21:35.884Z,6.90
2022-09-24T07:24:39.072Z,5.72
2022-09-24T07:27:42.158Z,6.32
2022-09-24T07:30:45.371Z,5.97
2022-09-24T07:33:48.460Z,5.43
2022-09-24T07:36:51.613Z,6.03
2022-09-24T07:39:54.685Z,6.65
2022-09-24T07:42:58.632Z,6.47
2022-09-24T07:46:01.876Z,6.30
2022-09-24T07:49:05.743Z,5.77
2022-09-24T07:52:10.139Z,5.13
2022-09-24T07:55:13.312Z,5.38
2022-09-24T07:58:16.583Z,3.67
2022-09-24T08:01:20.592Z,5.43
2022-09-24T08:04:23.838Z,4.77
2022-09-24T08:07:27.150Z,3.97
2022-09-24T08:10:30.538Z,4.43
2022-09-24T08:13:37.086Z,5.10
2022-09-24T08:16:40.712Z,4.65
2022-09-24T08:19:46.288Z,4.00
2022-09-24T08:22:49.487Z,4.10
2022-09-24T08:25:55.353Z,3.90
2022-09-24T08:28:58.538Z,3.45
2022-09-24T08:32:03.259Z,5.30
2022-09-24T08:35:08.244Z,3.47
2022-09-24T08:38:11.359Z,2.87
2022-09-24T08:41:23.072Z,3.30
2022-09-24T08:44:58.158Z,3.17
2022-09-24T08:48:19.300Z,3.70
2022-09-24T08:51:24.413Z,3.00
2022-09-24T08:54:31.102Z,3.90
2022-09-24T08:58:08.580Z,3.53
2022-09-24T09:01:11.840Z,3.10
2022-09-24T09:04:32.355Z,3.08
2022-09-24T09:07:44.247Z,2.60
2022-09-24T09:10:47.934Z,2.00
2022-09-24T09:14:21.197Z,2.25
2022-09-24T09:17:34.664Z,2.30
2022-09-24T09:20:46.356Z,2.30
2022-09-24T09:23:51.317Z,1.67
2022-09-24T09:26:58.600Z,1.53
2022-09-24T09:30:07.211Z,1.65
2022-09-24T09:33:42.402Z,1.75
2022-09-24T09:37:07.789Z,1.80
2022-09-24T09:40:31.689Z,1.90
2022-09-24T09:43:35.505Z,1.30
2022-09-24T09:46:46.439Z,1.30
2022-09-24T09:49:53.498Z,1.30
2022-09-24T09:52:56.667Z,1.50
2022-09-24T09:56:06.496Z,1.80
2022-09-24T09:59:12.301Z,1.30
2022-09-24T10:02:31.574Z,1.40
2022-09-24T10:05:35.504Z,1.60
2022-09-24T10:08:39.002Z,1.50
2022-09-24T10:11:42.332Z,1.60
2022-09-24T10:14:56.546Z,1.57
2022-09-24T10:18:01.284Z,1.08
2022-09-24T10:21:12.136Z,1.40
2022-09-24T10:24:24.465Z,1.38
2022-09-24T10:27:35.372Z,1.43
2022-09-24T10:30:51.230Z,1.37
2022-09-24T10:33:56.729Z,1.15
2022-09-24T10:37:15.319Z,1.15
2022-09-24T10:40:24.270Z,1.20
2022-09-24T10:43:27.427Z,1.10
2022-09-24T10:46:51.158Z,1.10
2022-09-24T10:50:22.108Z,1.33
2022-09-24T10:53:47.909Z,1.40
2022-09-24T10:56:54.937Z,1.20
2022-09-24T11:00:02.234Z,1.20
2022-09-24T11:03:20.819Z,1.00
2022-09-24T11:06:46.284Z,0.95
2022-09-24T11:09:52.277Z,1.20
2022-09-24T11:12:55.340Z,1.10
2022-09-24T11:16:10.767Z,0.87
2022-09-24T11:19:40.426Z,1.20
2022-09-24T11:22:49.443Z,1.10
2022-09-24T11:26:07.955Z,1.25
2022-09-24T11:29:49.902Z,1.08
2022-09-24T11:33:22.122Z,1.07
2022-09-24T11:36:41.840Z,1.30
2022-09-24T11:40:11.359Z,1.10
2022-09-24T11:43:52.774Z,1.15
2022-09-24T11:47:21.443Z,1.00
2022-09-24T11:50:48.994Z,1.20
2022-09-24T11:54:01.674Z,1.00
2022-09-24T11:57:39.831Z,1.00
2022-09-24T12:00:55.151Z,1.27
2022-09-24T12:04:20.053Z,2.15
2022-09-24T12:07:34.705Z,1.10
2022-09-24T12:10:43.851Z,1.10
2022-09-24T12:13:57.745Z,1.45
2022-09-24T12:17:06.935Z,1.00
2022-09-24T12:20:20.367Z,0.95
2022-09-24T12:23:29.287Z,0.80
2022-09-24T12:26:38.197Z,1.00
2022-09-24T12:30:10.125Z,0.88
2022-09-24T12:33:29.647Z,0.70
2022-09-24T12:36:57.502Z,0.80
2022-09-24T12:40:19.435Z,0.90
2022-09-24T12:43:32.309Z,1.00
2022-09-24T12:46:43.286Z,0.70
2022-09-24T12:49:52.354Z,0.80
2022-09-24T12:52:55.748Z,0.80
2022-09-24T12:56:00.584Z,0.80
2022-09-24T12:59:05.677Z,0.73
2022-09-24T13:02:21.427Z,0.70
2022-09-24T13:05:27.306Z,0.95
2022-09-24T13:08:41.250Z,1.10
2022-09-24T13:11:44.412Z,0.80
2022-09-24T13:15:04.123Z,1.23
2022-09-24T13:18:10.898Z,1.10
2022-09-24T13:21:24.222Z,1.20
2022-09-24T13:24:30.155Z,0.90
2022-09-24T13:27:35.327Z,1.13
2022-09-24T13:30:41.674Z,1.10
2022-09-24T13:33:48.082Z,1.05
2022-09-24T13:36:58.933Z,1.00
2022-09-24T13:40:16.508Z,1.55
2022-09-24T13:43:34.428Z,0.97
2022-09-24T13:46:41.218Z,1.10
2022-09-24T13:49:48.427Z,0.85
2022-09-24T13:53:06.488Z,0.90
2022-09-24T13:56:15.500Z,1.02
2022-09-24T13:59:18.588Z,1.40
2022-09-24T14:02:31.105Z,1.23
2022-09-24T14:05:37.736Z,1.30
2022-09-24T14:08:44.650Z,1.08
2022-09-24T14:11:52.577Z,1.00
2022-09-24T14:14:58.206Z,0.70
2022-09-24T14:18:01.717Z,1.00
2022-09-24T14:21:25.829Z,0.98
2022-09-24T14:24:33.799Z,1.23
2022-09-24T14:27:45.634Z,1.10
2022-09-24T14:30:56.411Z,0.90
2022-09-24T14:34:02.581Z,1.30
2022-09-24T14:37:17.347Z,1.27
2022-09-24T14:40:22.999Z,1.50
2022-09-24T14:43:37.540Z,1.63
2022-09-24T14:46:48.958Z,1.70
2022-09-24T14:49:52.583Z,1.20
2022-09-24T14:52:56.968Z,1.30
2022-09-24T14:56:00.169Z,0.90
2022-09-24T14:59:16.495Z,0.70
2022-09-24T15:02:37.107Z,1.10
2022-09-24T15:05:40.453Z,1.30
2022-09-24T15:08:43.678Z,1.23
2022-09-24T15:11:47.167Z,1.80
2022-09-24T15:15:01.316Z,1.40
2022-09-24T15:18:06.500Z,2.00
2022-09-24T15:21:11.111Z,1.57
2022-09-24T15:24:14.737Z,1.42
2022-09-24T15:27:29.671Z,1.70
2022-09-24T15:30:32.878Z,2.88
2022-09-24T15:33:36.044Z,3.73
2022-09-24T15:36:40.236Z,5.23
2022-09-24T15:39:48.636Z,4.68
2022-09-24T15:42:52.345Z,3.15
2022-09-24T15:45:55.453Z,3.75
2022-09-24T15:48:58.642Z,3.27
2022-09-24T15:52:12.292Z,4.07
2022-09-24T15:55:18.960Z,4.50
2022-09-24T15:58:23.924Z,5.95
2022-09-24T16:01:27.123Z,6.30
2022-09-24T16:04:30.258Z,5.73
2022-09-24T16:07:33.422Z,3.97
2022-09-24T16:10:37.046Z,3.95
2022-09-24T16:13:40.233Z,3.42
2022-09-24T16:16:43.401Z,4.53
2022-09-24T16:19:46.496Z,7.10
2022-09-24T16:22:53.709Z,8.27
2022-09-24T16:25:58.800Z,7.85
2022-09-24T16:29:05.867Z,6.35
2022-09-24T16:32:09.074Z,6.03
2022-09-24T16:35:13.274Z,5.03
2022-09-24T16:38:21.843Z,4.47
2022-09-24T16:41:26.161Z,4.10
2022-09-24T16:44:29.270Z,3.83
2022-09-24T16:47:33.086Z,4.00
2022-09-24T16:50:36.200Z,2.80
2022-09-24T16:53:39.555Z,3.00
2022-09-24T16:56:42.726Z,2.67
2022-09-24T16:59:45.857Z,2.33
2022-09-24T17:02:49.069Z,2.75
2022-09-24T17:05:52.180Z,2.70
2022-09-24T17:09:14.203Z,2.83
2022-09-24T17:12:17.515Z,2.40
2022-09-24T17:15:21.241Z,2.40
2022-09-24T17:18:26.009Z,2.42
2022-09-24T17:21:29.945Z,2.03
2022-09-24T17:24:35.859Z,2.30
2022-09-24T17:27:40.188Z,2.08
2022-09-24T17:30:43.447Z,2.50
2022-09-24T17:33:47.891Z,2.15
2022-09-24T17:36:50.969Z,2.20
2022-09-24T17:39:54.161Z,2.50
2022-09-24T17:42:57.245Z,2.33
2022-09-24T17:46:13.827Z,2.60
2022-09-24T17:49:17.544Z,2.63
2022-09-24T17:52:20.831Z,2.70
2022-09-24T17:55:24.053Z,2.50
2022-09-24T17:58:27.949Z,2.63
2022-09-24T18:01:38.293Z,2.40
2022-09-24T18:04:41.598Z,2.72
2022-09-24T18:07:45.294Z,2.37
2022-09-24T18:10:59.540Z,2.93
2022-09-24T18:14:03.075Z,2.95
2022-09-24T18:17:06.507Z,2.50
2022-09-24T18:20:09.893Z,2.63
2022-09-24T18:23:13.556Z,2.70
2022-09-24T18:26:22.687Z,2.50
2022-09-24T18:29:26.240Z,2.47
2022-09-24T18:32:32.563Z,2.33
2022-09-24T18:35:35.693Z,2.10
2022-09-24T18:38:39.665Z,1.97
2022-09-24T18:41:44.290Z,2.23
2022-09-24T18:44:47.335Z,2.30
2022-09-24T18:47:50.612Z,2.30
2022-09-24T18:50:53.650Z,2.40
2022-09-24T18:53:59.510Z,2.43
2022-09-24T18:57:03.215Z,2.67
2022-09-24T19:00:27.174Z,2.50
2022-09-24T19:03:31.276Z,2.35
2022-09-24T19:06:36.138Z,2.58
2022-09-24T19:09:39.239Z,1.47
2022-09-24T19:12:43.274Z,2.97
2022-09-24T19:15:46.940Z,3.33
2022-09-24T19:18:52.061Z,3.05
2022-09-24T19:21:55.453Z,3.50
2022-09-24T19:24:58.533Z,3.33
2022-09-24T19:28:04.131Z,3.33
2022-09-24T19:31:12.675Z,3.45
2022-09-24T19:34:15.801Z,4.72
2022-09-24T19:37:18.887Z,4.13
2022-09-24T19:40:22.223Z,3.60
2022-09-24T19:43:25.668Z,3.30
2022-09-24T19:46:31.195Z,3.88
2022-09-24T19:49:34.437Z,3.67
2022-09-24T19:52:37.710Z,4.38
2022-09-24T19:55:41.065Z,3.97
2022-09-24T19:58:47.423Z,4.33
2022-09-24T20:01:51.415Z,4.55
2022-09-24T20:04:54.579Z,4.65
2022-09-24T20:07:57.665Z,4.90
2022-09-24T20:11:11.297Z,4.67
2022-09-24T20:14:15.242Z,5.87
2022-09-24T20:17:18.355Z,4.78
2022-09-24T20:20:23.073Z,5.10
2022-09-24T20:23:26.221Z,5.50
2022-09-24T20:26:48.083Z,5.10
2022-09-24T20:29:53.771Z,5.13
2022-09-24T20:32:57.081Z,5.43
2022-09-24T20:36:03.871Z,5.10
2022-09-24T20:39:07.014Z,5.25
2022-09-24T20:42:10.110Z,5.13
2022-09-24T20:45:13.411Z,5.23
2022-09-24T20:48:17.048Z,5.45
2022-09-24T20:51:21.593Z,6.00
2022-09-24T20:54:25.785Z,5.25
2022-09-24T20:57:28.928Z,5.13
2022-09-24T21:00:35.815Z,5.07
2022-09-24T21:03:45.142Z,5.55
2022-09-24T21:06:49.749Z,5.80
2022-09-24T21:09:53.229Z,6.05
2022-09-24T21:12:56.501Z,5.37
2022-09-24T21:16:03.519Z,5.23
2022-09-24T21:19:07.957Z,5.82
2022-09-24T21:22:13.576Z,5.30
2022-09-24T21:25:36.170Z,5.60
2022-09-24T21:28:42.267Z,5.50
2022-09-24T21:31:46.812Z,4.93
2022-09-24T21:34:49.891Z,5.55
2022-09-24T21:37:53.002Z,5.28
2022-09-24T21:40:57.784Z,4.88
2022-09-24T21:44:02.005Z,4.70
2022-09-24T21:47:05.391Z,5.20
2022-09-24T21:50:09.607Z,5.18
2022-09-24T21:53:12.704Z,5.78
2022-09-24T21:56:18.741Z,4.90
2022-09-24T21:59:40.488Z,5.80
2022-09-24T22:02:44.945Z,5.60
2022-09-24T22:05:48.770Z,5.40
2022-09-24T22:08:51.890Z,5.35
2022-09-24T22:11:56.081Z,4.97
2022-09-24T22:14:59.139Z,5.30
2022-09-24T22:18:02.681Z,4.97
2022-09-24T22:21:11.907Z,5.28
2022-09-24T22:24:15.998Z,5.00
2022-09-24T22:27:19.269Z,4.90
2022-09-24T22:30:24.247Z,5.00
2022-09-24T22:33:48.161Z,5.67
2022-09-24T22:36:51.726Z,5.30
2022-09-24T22:39:54.866Z,5.68
2022-09-24T22:42:58.036Z,6.30
2022-09-24T22:46:04.358Z,5.37
2022-09-24T22:49:07.786Z,5.00
2022-09-24T22:52:10.889Z,4.97
2022-09-24T22:55:14.811Z,4.93
2022-09-24T22:58:17.933Z,5.35
2022-09-24T23:01:24.410Z,5.60
2022-09-24T23:04:27.816Z,5.47
2022-09-24T23:07:30.941Z,5.88
2022-09-24T23:10:34.531Z,6.25
2022-09-24T23:13:39.107Z,5.70
2022-09-24T23:16:43.339Z,6.10
2022-09-24T23:19:49.734Z,5.83
2022-09-24T23:22:55.869Z,5.97
2022-09-24T23:26:16.288Z,5.93
2022-09-24T23:29:20.064Z,5.80
2022-09-24T23:32:23.230Z,5.90
2022-09-24T23:35:26.604Z,6.23
2022-09-24T23:38:34.167Z,5.90
2022-09-24T23:41:37.620Z,5.85
2022-09-24T23:44:41.424Z,6.10
2022-09-24T23:47:44.547Z,6.07
2022-09-24T23:50:48.110Z,6.37
2022-09-24T23:53:52.147Z,6.47
2022-09-24T23:56:56.114Z,6.78
2022-09-24T23:59:59.244Z,6.68
